sensor_id;sensor_type;location;lat;lon;timestamp;pressure;altitude;pressure_sealevel;temperature;humidity
31183;BME280;17813;0.000;0.000;2023-06-22T00:02:08;99657.09;;;19.61;82.46
31183;BME280;17813;0.000;0.000;2023-06-22T00:04:37;99655.34;;;19.69;82.03
31183;BME280;17813;0.000;0.000;2023-06-22T00:07:09;99644.91;;;19.66;81.99
31183;BME280;17813;0.000;0.000;2023-06-22T00:09:39;99642.78;;;19.60;82.53
31183;BME280;17813;0.000;0.000;2023-06-22T00:12:10;99647.03;;;19.63;82.36
31183;BME280;17813;0.000;0.000;2023-06-22T00:14:40;99649.28;;;19.67;81.51
31183;BME280;17813;0.000;0.000;2023-06-22T00:17:10;99648.97;;;19.70;81.05
31183;BME280;17813;0.000;0.000;2023-06-22T00:19:37;99652.06;;;19.75;80.64
31183;BME280;17813;0.000;0.000;2023-06-22T00:22:13;99653.22;;;19.73;80.52
31183;BME280;17813;0.000;0.000;2023-06-22T00:24:44;99664.16;;;19.62;81.07
31183;BME280;17813;0.000;0.000;2023-06-22T00:27:11;99661.78;;;19.49;81.66
31183;BME280;17813;0.000;0.000;2023-06-22T00:29:38;99658.00;;;19.32;82.08
31183;BME280;17813;0.000;0.000;2023-06-22T00:32:05;99652.22;;;19.27;82.22
31183;BME280;17813;0.000;0.000;2023-06-22T00:34:36;99649.13;;;19.22;82.40
31183;BME280;17813;0.000;0.000;2023-06-22T00:37:06;99649.44;;;19.09;83.07
31183;BME280;17813;0.000;0.000;2023-06-22T00:39:33;99655.38;;;19.13;82.92
31183;BME280;17813;0.000;0.000;2023-06-22T00:42:01;99650.41;;;19.18;82.78
31183;BME280;17813;0.000;0.000;2023-06-22T00:44:29;99647.69;;;19.27;82.46
31183;BME280;17813;0.000;0.000;2023-06-22T00:46:57;99650.66;;;19.34;81.62
31183;BME280;17813;0.000;0.000;2023-06-22T00:49:25;99657.44;;;19.28;81.76
31183;BME280;17813;0.000;0.000;2023-06-22T00:51:53;99657.88;;;19.24;81.64
31183;BME280;17813;0.000;0.000;2023-06-22T00:54:20;99656.06;;;19.15;81.47
31183;BME280;17813;0.000;0.000;2023-06-22T00:56:56;99646.34;;;18.94;82.93
31183;BME280;17813;0.000;0.000;2023-06-22T00:59:29;99644.81;;;18.73;84.13
31183;BME280;17813;0.000;0.000;2023-06-22T01:01:58;99636.44;;;18.56;85.13
31183;BME280;17813;0.000;0.000;2023-06-22T01:04:38;99638.72;;;18.42;84.87
31183;BME280;17813;0.000;0.000;2023-06-22T01:07:35;99644.88;;;18.13;85.38
31183;BME280;17813;0.000;0.000;2023-06-22T01:10:14;99644.06;;;18.22;84.72
31183;BME280;17813;0.000;0.000;2023-06-22T01:12:47;99647.97;;;18.18;84.54
31183;BME280;17813;0.000;0.000;2023-06-22T01:15:43;99638.63;;;18.03;85.15
31183;BME280;17813;0.000;0.000;2023-06-22T01:18:15;99636.09;;;18.11;85.53
31183;BME280;17813;0.000;0.000;2023-06-22T01:20:52;99619.56;;;18.16;85.71
31183;BME280;17813;0.000;0.000;2023-06-22T01:23:45;99611.00;;;18.22;84.84
31183;BME280;17813;0.000;0.000;2023-06-22T01:29:27;99602.66;;;18.35;84.92
31183;BME280;17813;0.000;0.000;2023-06-22T01:31:57;99609.16;;;18.42;84.34
31183;BME280;17813;0.000;0.000;2023-06-22T01:34:28;99605.91;;;18.48;83.70
31183;BME280;17813;0.000;0.000;2023-06-22T01:36:59;99613.69;;;18.51;83.49
31183;BME280;17813;0.000;0.000;2023-06-22T01:39:28;99607.63;;;18.58;83.26
31183;BME280;17813;0.000;0.000;2023-06-22T01:41:57;99614.44;;;18.62;82.92
31183;BME280;17813;0.000;0.000;2023-06-22T01:44:26;99626.59;;;18.67;82.74
31183;BME280;17813;0.000;0.000;2023-06-22T01:46:59;99634.50;;;18.68;82.51
31183;BME280;17813;0.000;0.000;2023-06-22T01:49:30;99643.97;;;18.72;82.45
31183;BME280;17813;0.000;0.000;2023-06-22T01:52:17;99638.16;;;18.77;82.53
31183;BME280;17813;0.000;0.000;2023-06-22T01:55:04;99643.97;;;18.82;82.33
31183;BME280;17813;0.000;0.000;2023-06-22T01:57:46;99649.91;;;18.85;82.20
31183;BME280;17813;0.000;0.000;2023-06-22T02:00:18;99625.84;;;18.84;81.83
31183;BME280;17813;0.000;0.000;2023-06-22T02:03:00;99633.63;;;18.87;81.77
31183;BME280;17813;0.000;0.000;2023-06-22T02:05:50;99631.53;;;18.61;82.50
31183;BME280;17813;0.000;0.000;2023-06-22T02:08:25;99627.97;;;18.32;84.30
31183;BME280;17813;0.000;0.000;2023-06-22T02:10:56;99640.97;;;18.27;84.13
31183;BME280;17813;0.000;0.000;2023-06-22T02:13:25;99622.69;;;18.11;85.20
31183;BME280;17813;0.000;0.000;2023-06-22T02:15:52;99616.59;;;18.09;86.00
31183;BME280;17813;0.000;0.000;2023-06-22T02:18:19;99629.88;;;18.11;85.23
31183;BME280;17813;0.000;0.000;2023-06-22T02:20:47;99633.00;;;18.16;84.48
31183;BME280;17813;0.000;0.000;2023-06-22T02:23:14;99633.00;;;18.16;83.67
31183;BME280;17813;0.000;0.000;2023-06-22T02:25:40;99628.63;;;18.15;83.79
31183;BME280;17813;0.000;0.000;2023-06-22T02:28:10;99621.84;;;18.11;84.06
31183;BME280;17813;0.000;0.000;2023-06-22T02:30:37;99619.69;;;18.05;84.61
31183;BME280;17813;0.000;0.000;2023-06-22T02:33:08;99613.63;;;18.03;84.43
31183;BME280;17813;0.000;0.000;2023-06-22T02:35:34;99614.47;;;18.03;84.80
31183;BME280;17813;0.000;0.000;2023-06-22T02:38:03;99617.88;;;18.05;84.45
31183;BME280;17813;0.000;0.000;2023-06-22T02:40:30;99625.22;;;18.13;84.14
31183;BME280;17813;0.000;0.000;2023-06-22T02:42:57;99636.16;;;18.21;83.70
31183;BME280;17813;0.000;0.000;2023-06-22T02:45:31;99631.56;;;18.12;84.08
31183;BME280;17813;0.000;0.000;2023-06-22T02:47:58;99641.06;;;18.16;84.04
31183;BME280;17813;0.000;0.000;2023-06-22T02:50:25;99640.03;;;18.07;84.29
31183;BME280;17813;0.000;0.000;2023-06-22T02:52:52;99631.28;;;18.05;84.45
31183;BME280;17813;0.000;0.000;2023-06-22T02:55:19;99617.44;;;18.10;84.71
31183;BME280;17813;0.000;0.000;2023-06-22T02:57:49;99608.41;;;18.11;84.32
31183;BME280;17813;0.000;0.000;2023-06-22T03:00:19;99606.28;;;18.14;85.02
31183;BME280;17813;0.000;0.000;2023-06-22T03:02:47;99611.81;;;18.13;86.23
31183;BME280;17813;0.000;0.000;2023-06-22T03:05:15;99621.13;;;18.09;87.25
31183;BME280;17813;0.000;0.000;2023-06-22T03:07:45;99626.91;;;18.14;86.45
31183;BME280;17813;0.000;0.000;2023-06-22T03:10:13;99632.63;;;18.20;85.83
31183;BME280;17813;0.000;0.000;2023-06-22T03:12:41;99627.13;;;18.31;85.58
31183;BME280;17813;0.000;0.000;2023-06-22T03:15:11;99629.53;;;18.44;85.04
31183;BME280;17813;0.000;0.000;2023-06-22T03:17:41;99622.47;;;18.53;84.63
31183;BME280;17813;0.000;0.000;2023-06-22T03:20:09;99623.31;;;18.44;85.20
31183;BME280;17813;0.000;0.000;2023-06-22T03:22:40;99620.63;;;18.44;85.29
31183;BME280;17813;0.000;0.000;2023-06-22T03:25:08;99628.81;;;18.42;85.24
31183;BME280;17813;0.000;0.000;2023-06-22T03:27:42;99646.47;;;18.25;86.48
31183;BME280;17813;0.000;0.000;2023-06-22T03:30:11;99656.03;;;18.18;86.79
31183;BME280;17813;0.000;0.000;2023-06-22T03:32:39;99654.25;;;18.28;86.64
31183;BME280;17813;0.000;0.000;2023-06-22T03:35:06;99665.13;;;18.37;86.29
31183;BME280;17813;0.000;0.000;2023-06-22T03:37:33;99672.78;;;18.51;85.84
31183;BME280;17813;0.000;0.000;2023-06-22T03:40:00;99680.59;;;18.63;85.55
31183;BME280;17813;0.000;0.000;2023-06-22T03:42:27;99702.94;;;18.74;85.01
31183;BME280;17813;0.000;0.000;2023-06-22T03:44:57;99706.19;;;18.87;84.41
31183;BME280;17813;0.000;0.000;2023-06-22T03:47:25;99712.81;;;19.02;84.19
31183;BME280;17813;0.000;0.000;2023-06-22T03:49:52;99724.84;;;19.17;84.01
31183;BME280;17813;0.000;0.000;2023-06-22T03:52:22;99730.50;;;19.14;84.23
31183;BME280;17813;0.000;0.000;2023-06-22T03:54:49;99747.19;;;19.08;84.89
31183;BME280;17813;0.000;0.000;2023-06-22T03:57:15;99750.88;;;19.07;84.85
31183;BME280;17813;0.000;0.000;2023-06-22T03:59:42;99766.28;;;19.05;84.94
31183;BME280;17813;0.000;0.000;2023-06-22T04:02:09;99779.31;;;19.10;84.64
31183;BME280;17813;0.000;0.000;2023-06-22T04:04:36;99782.00;;;19.10;85.00
31183;BME280;17813;0.000;0.000;2023-06-22T04:07:05;99787.25;;;19.11;84.92
31183;BME280;17813;0.000;0.000;2023-06-22T04:09:32;99778.03;;;19.04;85.19
31183;BME280;17813;0.000;0.000;2023-06-22T04:12:01;99778.88;;;18.85;86.22
31183;BME280;17813;0.000;0.000;2023-06-22T04:14:28;99777.31;;;18.92;85.97
31183;BME280;17813;0.000;0.000;2023-06-22T04:16:55;99771.09;;;18.92;85.48
31183;BME280;17813;0.000;0.000;2023-06-22T04:19:22;99771.38;;;18.89;85.86
31183;BME280;17813;0.000;0.000;2023-06-22T04:21:49;99771.66;;;18.95;85.63
31183;BME280;17813;0.000;0.000;2023-06-22T04:24:15;99753.56;;;19.07;85.49
31183;BME280;17813;0.000;0.000;2023-06-22T04:26:42;99741.53;;;19.21;84.94
31183;BME280;17813;0.000;0.000;2023-06-22T04:29:12;99735.16;;;19.32;85.04
31183;BME280;17813;0.000;0.000;2023-06-22T04:31:39;99739.50;;;19.42;85.09
31183;BME280;17813;0.000;0.000;2023-06-22T04:34:09;99737.81;;;19.61;84.97
31183;BME280;17813;0.000;0.000;2023-06-22T04:36:40;99732.94;;;20.11;83.76
31183;BME280;17813;0.000;0.000;2023-06-22T04:39:11;99727.09;;;20.88;81.58
31183;BME280;17813;0.000;0.000;2023-06-22T04:41:39;99718.06;;;21.59;78.64
31183;BME280;17813;0.000;0.000;2023-06-22T04:44:10;99701.63;;;22.04;76.67
31183;BME280;17813;0.000;0.000;2023-06-22T04:46:39;99690.63;;;22.48;75.21
31183;BME280;17813;0.000;0.000;2023-06-22T04:49:09;99669.03;;;22.72;73.47
31183;BME280;17813;0.000;0.000;2023-06-22T04:51:41;99619.38;;;22.65;73.47
31183;BME280;17813;0.000;0.000;2023-06-22T04:54:09;99557.53;;;22.45;73.69
31183;BME280;17813;0.000;0.000;2023-06-22T04:56:36;99607.47;;;22.09;74.53
31183;BME280;17813;0.000;0.000;2023-06-22T04:59:03;99620.47;;;22.05;75.68
31183;BME280;17813;0.000;0.000;2023-06-22T05:01:30;99605.44;;;22.03;76.19
31183;BME280;17813;0.000;0.000;2023-06-22T05:04:01;99588.50;;;22.01;77.16
31183;BME280;17813;0.000;0.000;2023-06-22T05:06:29;99579.94;;;22.05;77.05
31183;BME280;17813;0.000;0.000;2023-06-22T05:08:57;99560.88;;;22.07;77.15
31183;BME280;17813;0.000;0.000;2023-06-22T05:11:28;99540.78;;;22.09;76.45
31183;BME280;17813;0.000;0.000;2023-06-22T05:13:56;99528.31;;;22.17;76.30
31183;BME280;17813;0.000;0.000;2023-06-22T05:16:25;99505.19;;;22.14;76.20
31183;BME280;17813;0.000;0.000;2023-06-22T05:18:55;99494.22;;;22.24;76.42
31183;BME280;17813;0.000;0.000;2023-06-22T05:21:26;99474.13;;;22.26;76.18
31183;BME280;17813;0.000;0.000;2023-06-22T05:23:54;99485.44;;;22.38;76.07
31183;BME280;17813;0.000;0.000;2023-06-22T05:26:21;99495.72;;;22.51;75.67
31183;BME280;17813;0.000;0.000;2023-06-22T05:28:49;99506.53;;;22.34;75.86
31183;BME280;17813;0.000;0.000;2023-06-22T05:31:16;99520.88;;;22.43;75.47
31183;BME280;17813;0.000;0.000;2023-06-22T05:33:44;99528.97;;;22.59;75.66
31183;BME280;17813;0.000;0.000;2023-06-22T05:36:11;99545.03;;;22.77;75.21
31183;BME280;17813;0.000;0.000;2023-06-22T05:38:39;99556.53;;;22.87;74.57
31183;BME280;17813;0.000;0.000;2023-06-22T05:41:06;99557.03;;;22.91;74.33
31183;BME280;17813;0.000;0.000;2023-06-22T05:43:34;99553.97;;;22.94;74.13
31183;BME280;17813;0.000;0.000;2023-06-22T05:46:03;99546.19;;;22.99;74.03
31183;BME280;17813;0.000;0.000;2023-06-22T05:48:31;99557.69;;;23.01;73.73
31183;BME280;17813;0.000;0.000;2023-06-22T05:51:02;99557.16;;;23.05;73.42
31183;BME280;17813;0.000;0.000;2023-06-22T05:53:30;99564.09;;;23.08;73.23
31183;BME280;17813;0.000;0.000;2023-06-22T05:55:58;99567.59;;;23.25;73.10
31183;BME280;17813;0.000;0.000;2023-06-22T05:58:26;99577.00;;;23.61;72.97
31183;BME280;17813;0.000;0.000;2023-06-22T06:00:54;99578.69;;;24.24;71.57
31183;BME280;17813;0.000;0.000;2023-06-22T06:03:47;99578.91;;;25.21;69.34
31183;BME280;17813;0.000;0.000;2023-06-22T06:06:18;99577.97;;;26.23;66.08
31183;BME280;17813;0.000;0.000;2023-06-22T06:09:06;99570.13;;;27.27;62.04
31183;BME280;17813;0.000;0.000;2023-06-22T06:11:35;99574.34;;;28.18;60.66
31183;BME280;17813;0.000;0.000;2023-06-22T06:14:05;99570.06;;;29.23;57.89
31183;BME280;17813;0.000;0.000;2023-06-22T06:16:36;99573.25;;;30.29;54.12
31183;BME280;17813;0.000;0.000;2023-06-22T06:19:07;99582.25;;;31.24;51.21
31183;BME280;17813;0.000;0.000;2023-06-22T06:21:42;99585.75;;;31.75;49.57
31183;BME280;17813;0.000;0.000;2023-06-22T06:24:10;99588.69;;;32.40;48.50
31183;BME280;17813;0.000;0.000;2023-06-22T06:26:37;99591.00;;;33.08;47.20
31183;BME280;17813;0.000;0.000;2023-06-22T06:29:11;99584.06;;;33.64;43.46
31183;BME280;17813;0.000;0.000;2023-06-22T06:31:38;99584.44;;;34.19;43.26
31183;BME280;17813;0.000;0.000;2023-06-22T06:34:06;99581.03;;;34.74;43.06
31183;BME280;17813;0.000;0.000;2023-06-22T06:36:33;99582.97;;;35.24;41.24
31183;BME280;17813;0.000;0.000;2023-06-22T06:39:01;99583.22;;;35.39;39.68
31183;BME280;17813;0.000;0.000;2023-06-22T06:41:30;99583.75;;;35.58;39.74
31183;BME280;17813;0.000;0.000;2023-06-22T06:44:00;99578.53;;;36.00;38.70
31183;BME280;17813;0.000;0.000;2023-06-22T06:46:28;99579.53;;;36.37;38.15
31183;BME280;17813;0.000;0.000;2023-06-22T06:49:00;99582.56;;;36.63;36.36
31183;BME280;17813;0.000;0.000;2023-06-22T06:51:27;99596.25;;;37.12;36.15
31183;BME280;17813;0.000;0.000;2023-06-22T06:53:54;99595.13;;;37.45;35.12
31183;BME280;17813;0.000;0.000;2023-06-22T06:56:23;99583.78;;;37.46;34.83
31183;BME280;17813;0.000;0.000;2023-06-22T06:58:53;99579.63;;;37.07;33.74
31183;BME280;17813;0.000;0.000;2023-06-22T07:01:22;99567.13;;;37.36;34.89
31183;BME280;17813;0.000;0.000;2023-06-22T07:03:50;99569.97;;;37.51;34.44
31183;BME280;17813;0.000;0.000;2023-06-22T07:06:17;99559.69;;;37.99;32.96
31183;BME280;17813;0.000;0.000;2023-06-22T07:08:44;99557.47;;;37.96;32.91
31183;BME280;17813;0.000;0.000;2023-06-22T07:11:12;99553.72;;;38.58;32.76
31183;BME280;17813;0.000;0.000;2023-06-22T07:13:40;99553.75;;;38.78;32.30
31183;BME280;17813;0.000;0.000;2023-06-22T07:16:06;99553.25;;;39.12;31.67
31183;BME280;17813;0.000;0.000;2023-06-22T07:18:34;99552.06;;;39.48;31.22
31183;BME280;17813;0.000;0.000;2023-06-22T07:21:02;99552.13;;;39.08;29.94
31183;BME280;17813;0.000;0.000;2023-06-22T07:23:33;99556.31;;;39.05;29.43
31183;BME280;17813;0.000;0.000;2023-06-22T07:26:01;99556.75;;;38.31;29.57
31183;BME280;17813;0.000;0.000;2023-06-22T07:28:28;99543.78;;;38.87;29.47
31183;BME280;17813;0.000;0.000;2023-06-22T07:31:05;99549.28;;;39.53;28.45
31183;BME280;17813;0.000;0.000;2023-06-22T07:33:33;99550.91;;;39.65;28.53
31183;BME280;17813;0.000;0.000;2023-06-22T07:36:04;99541.47;;;39.61;28.01
31183;BME280;17813;0.000;0.000;2023-06-22T07:38:39;99542.72;;;39.89;28.40
31183;BME280;17813;0.000;0.000;2023-06-22T07:41:07;99542.09;;;40.07;27.00
31183;BME280;17813;0.000;0.000;2023-06-22T07:43:36;99537.47;;;39.87;27.00
31183;BME280;17813;0.000;0.000;2023-06-22T07:46:04;99525.78;;;39.90;27.89
31183;BME280;17813;0.000;0.000;2023-06-22T07:48:32;99529.84;;;40.13;26.82
31183;BME280;17813;0.000;0.000;2023-06-22T07:51:00;99521.66;;;40.32;26.26
31183;BME280;17813;0.000;0.000;2023-06-22T07:53:29;99516.88;;;40.42;26.60
31183;BME280;17813;0.000;0.000;2023-06-22T07:55:56;99516.25;;;40.51;25.70
31183;BME280;17813;0.000;0.000;2023-06-22T07:58:23;99524.59;;;41.13;25.61
31183;BME280;17813;0.000;0.000;2023-06-22T08:00:51;99510.44;;;41.10;24.38
31183;BME280;17813;0.000;0.000;2023-06-22T08:03:20;99518.91;;;40.27;24.73
31183;BME280;17813;0.000;0.000;2023-06-22T08:05:58;99507.47;;;39.94;25.23
31183;BME280;17813;0.000;0.000;2023-06-22T08:08:25;99514.81;;;39.65;24.88
31183;BME280;17813;0.000;0.000;2023-06-22T08:10:53;99507.63;;;39.59;25.91
31183;BME280;17813;0.000;0.000;2023-06-22T08:13:21;99508.81;;;39.32;25.81
31183;BME280;17813;0.000;0.000;2023-06-22T08:15:49;99501.41;;;39.82;26.06
31183;BME280;17813;0.000;0.000;2023-06-22T08:18:17;99497.19;;;39.25;25.50
31183;BME280;17813;0.000;0.000;2023-06-22T08:20:44;99504.97;;;38.57;25.32
31183;BME280;17813;0.000;0.000;2023-06-22T08:23:13;99501.56;;;38.04;26.66
31183;BME280;17813;0.000;0.000;2023-06-22T08:25:40;99497.47;;;38.37;26.67
31183;BME280;17813;0.000;0.000;2023-06-22T08:28:08;99491.94;;;38.57;26.89
31183;BME280;17813;0.000;0.000;2023-06-22T08:33:52;99504.50;;;37.20;28.02
31183;BME280;17813;0.000;0.000;2023-06-22T08:36:19;99491.31;;;37.27;27.98
31183;BME280;17813;0.000;0.000;2023-06-22T08:38:48;99489.69;;;37.36;27.74
31183;BME280;17813;0.000;0.000;2023-06-22T08:41:18;99482.88;;;37.64;27.01
31183;BME280;17813;0.000;0.000;2023-06-22T08:43:45;99492.50;;;38.34;26.83
31183;BME280;17813;0.000;0.000;2023-06-22T08:46:13;99473.13;;;38.65;26.34
31183;BME280;17813;0.000;0.000;2023-06-22T08:48:40;99490.53;;;38.19;26.93
31183;BME280;17813;0.000;0.000;2023-06-22T08:51:07;99476.72;;;38.50;26.98
31183;BME280;17813;0.000;0.000;2023-06-22T08:53:34;99483.06;;;38.15;27.06
31183;BME280;17813;0.000;0.000;2023-06-22T08:56:03;99485.47;;;37.91;27.24
31183;BME280;17813;0.000;0.000;2023-06-22T08:58:30;99481.03;;;37.85;27.74
31183;BME280;17813;0.000;0.000;2023-06-22T09:00:58;99478.91;;;38.38;27.39
31183;BME280;17813;0.000;0.000;2023-06-22T09:03:28;99475.88;;;38.49;27.14
31183;BME280;17813;0.000;0.000;2023-06-22T09:05:55;99477.81;;;38.39;27.66
31183;BME280;17813;0.000;0.000;2023-06-22T09:08:23;99471.97;;;39.16;26.62
31183;BME280;17813;0.000;0.000;2023-06-22T09:10:50;99464.94;;;39.49;25.98
31183;BME280;17813;0.000;0.000;2023-06-22T09:13:17;99455.19;;;39.47;26.73
31183;BME280;17813;0.000;0.000;2023-06-22T09:15:45;99469.53;;;39.69;25.74
31183;BME280;17813;0.000;0.000;2023-06-22T09:18:14;99465.91;;;38.79;26.95
31183;BME280;17813;0.000;0.000;2023-06-22T09:20:41;99449.75;;;39.21;27.63
31183;BME280;17813;0.000;0.000;2023-06-22T09:23:08;99455.00;;;39.93;26.95
31183;BME280;17813;0.000;0.000;2023-06-22T09:25:35;99448.50;;;40.46;25.95
31183;BME280;17813;0.000;0.000;2023-06-22T09:28:02;99455.88;;;41.14;25.02
31183;BME280;17813;0.000;0.000;2023-06-22T09:30:30;99450.31;;;41.38;23.80
31183;BME280;17813;0.000;0.000;2023-06-22T09:32:57;99443.16;;;40.84;24.84
31183;BME280;17813;0.000;0.000;2023-06-22T09:35:24;99444.09;;;40.69;24.98
31183;BME280;17813;0.000;0.000;2023-06-22T09:37:50;99439.25;;;41.09;24.24
31183;BME280;17813;0.000;0.000;2023-06-22T09:40:29;99438.34;;;40.90;24.45
31183;BME280;17813;0.000;0.000;2023-06-22T09:42:56;99439.47;;;41.12;24.59
31183;BME280;17813;0.000;0.000;2023-06-22T09:45:23;99438.84;;;41.21;24.42
31183;BME280;17813;0.000;0.000;2023-06-22T09:47:50;99428.00;;;41.19;24.16
31183;BME280;17813;0.000;0.000;2023-06-22T09:50:17;99428.94;;;41.33;23.65
31183;BME280;17813;0.000;0.000;2023-06-22T09:52:49;99430.78;;;41.43;23.25
31183;BME280;17813;0.000;0.000;2023-06-22T09:55:35;99416.69;;;41.96;23.32
31183;BME280;17813;0.000;0.000;2023-06-22T09:58:02;99427.44;;;42.02;22.48
31183;BME280;17813;0.000;0.000;2023-06-22T10:00:30;99421.03;;;41.22;22.86
31183;BME280;17813;0.000;0.000;2023-06-22T10:02:57;99420.06;;;40.21;24.05
31183;BME280;17813;0.000;0.000;2023-06-22T10:05:24;99413.84;;;40.34;24.05
31183;BME280;17813;0.000;0.000;2023-06-22T10:07:52;99410.00;;;40.88;23.85
31183;BME280;17813;0.000;0.000;2023-06-22T10:10:21;99402.91;;;41.24;23.50
31183;BME280;17813;0.000;0.000;2023-06-22T10:12:57;99407.38;;;40.43;23.85
31183;BME280;17813;0.000;0.000;2023-06-22T10:15:24;99396.06;;;39.57;24.65
31183;BME280;17813;0.000;0.000;2023-06-22T10:17:54;99403.16;;;39.78;23.93
31183;BME280;17813;0.000;0.000;2023-06-22T10:20:21;99396.94;;;39.96;24.86
31183;BME280;17813;0.000;0.000;2023-06-22T10:22:48;99388.00;;;40.38;24.34
31183;BME280;17813;0.000;0.000;2023-06-22T10:25:16;99385.22;;;40.38;24.41
31183;BME280;17813;0.000;0.000;2023-06-22T10:27:47;99386.94;;;39.46;25.48
31183;BME280;17813;0.000;0.000;2023-06-22T10:30:14;99382.50;;;38.70;25.66
31183;BME280;17813;0.000;0.000;2023-06-22T10:32:42;99385.28;;;38.60;26.43
31183;BME280;17813;0.000;0.000;2023-06-22T10:35:10;99379.63;;;38.96;25.87
31183;BME280;17813;0.000;0.000;2023-06-22T10:37:40;99376.34;;;39.04;26.70
31183;BME280;17813;0.000;0.000;2023-06-22T10:40:10;99380.19;;;39.08;26.26
31183;BME280;17813;0.000;0.000;2023-06-22T10:42:37;99375.28;;;38.69;26.27
31183;BME280;17813;0.000;0.000;2023-06-22T10:45:05;99369.72;;;38.74;26.75
31183;BME280;17813;0.000;0.000;2023-06-22T10:47:33;99375.28;;;38.74;26.10
31183;BME280;17813;0.000;0.000;2023-06-22T10:50:00;99370.59;;;38.54;26.04
31183;BME280;17813;0.000;0.000;2023-06-22T10:52:27;99359.25;;;38.31;26.42
31183;BME280;17813;0.000;0.000;2023-06-22T10:54:55;99365.34;;;37.92;27.30
31183;BME280;17813;0.000;0.000;2023-06-22T10:57:22;99368.06;;;37.61;27.45
31183;BME280;17813;0.000;0.000;2023-06-22T10:59:54;99358.28;;;37.23;27.59
31183;BME280;17813;0.000;0.000;2023-06-22T11:02:21;99359.81;;;36.94;28.13
31183;BME280;17813;0.000;0.000;2023-06-22T11:04:48;99361.41;;;36.80;28.22
31183;BME280;17813;0.000;0.000;2023-06-22T11:07:16;99350.03;;;37.39;28.11
31183;BME280;17813;0.000;0.000;2023-06-22T11:09:44;99352.28;;;37.57;28.17
31183;BME280;17813;0.000;0.000;2023-06-22T11:12:11;99354.38;;;37.19;28.07
31183;BME280;17813;0.000;0.000;2023-06-22T11:14:39;99349.00;;;36.92;29.01
31183;BME280;17813;0.000;0.000;2023-06-22T11:17:07;99348.47;;;36.95;28.99
31183;BME280;17813;0.000;0.000;2023-06-22T11:19:34;99338.94;;;37.23;28.32
31183;BME280;17813;0.000;0.000;2023-06-22T11:22:02;99341.59;;;37.08;28.37
31183;BME280;17813;0.000;0.000;2023-06-22T11:24:30;99338.84;;;37.08;28.48
31183;BME280;17813;0.000;0.000;2023-06-22T11:26:57;99324.06;;;37.60;28.31
31183;BME280;17813;0.000;0.000;2023-06-22T11:29:24;99327.44;;;37.87;27.45
31183;BME280;17813;0.000;0.000;2023-06-22T11:31:51;99325.50;;;37.83;28.63
31183;BME280;17813;0.000;0.000;2023-06-22T11:34:19;99321.28;;;37.65;27.74
31183;BME280;17813;0.000;0.000;2023-06-22T11:36:46;99316.91;;;37.79;27.37
31183;BME280;17813;0.000;0.000;2023-06-22T11:39:14;99319.94;;;37.93;26.97
31183;BME280;17813;0.000;0.000;2023-06-22T11:41:42;99304.44;;;37.87;27.20
31183;BME280;17813;0.000;0.000;2023-06-22T11:44:09;99296.41;;;38.21;27.14
31183;BME280;17813;0.000;0.000;2023-06-22T11:46:36;99291.63;;;38.47;26.77
31183;BME280;17813;0.000;0.000;2023-06-22T11:49:03;99291.72;;;38.21;26.92
31183;BME280;17813;0.000;0.000;2023-06-22T11:51:30;99295.31;;;37.81;26.45
31183;BME280;17813;0.000;0.000;2023-06-22T11:53:59;99296.97;;;37.77;26.86
31183;BME280;17813;0.000;0.000;2023-06-22T11:56:29;99291.44;;;37.92;27.11
31183;BME280;17813;0.000;0.000;2023-06-22T11:58:55;99292.28;;;37.88;26.02
31183;BME280;17813;0.000;0.000;2023-06-22T12:01:23;99290.78;;;37.19;26.75
31183;BME280;17813;0.000;0.000;2023-06-22T12:03:51;99277.50;;;37.11;27.25
31183;BME280;17813;0.000;0.000;2023-06-22T12:06:18;99264.84;;;37.61;27.53
31183;BME280;17813;0.000;0.000;2023-06-22T12:08:46;99266.25;;;37.99;27.40
31183;BME280;17813;0.000;0.000;2023-06-22T12:11:13;99255.97;;;38.25;26.60
31183;BME280;17813;0.000;0.000;2023-06-22T12:13:40;99263.75;;;38.18;26.75
31183;BME280;17813;0.000;0.000;2023-06-22T12:16:08;99263.78;;;37.82;26.00
31183;BME280;17813;0.000;0.000;2023-06-22T12:18:45;99259.88;;;37.48;26.72
31183;BME280;17813;0.000;0.000;2023-06-22T12:21:12;99240.50;;;37.48;26.83
31183;BME280;17813;0.000;0.000;2023-06-22T12:23:40;99241.09;;;37.75;26.86
31183;BME280;17813;0.000;0.000;2023-06-22T12:26:08;99234.44;;;37.71;26.32
31183;BME280;17813;0.000;0.000;2023-06-22T12:28:36;99234.09;;;37.22;26.99
31183;BME280;17813;0.000;0.000;2023-06-22T12:31:03;99235.19;;;37.16;27.54
31183;BME280;17813;0.000;0.000;2023-06-22T12:33:30;99234.03;;;36.91;27.65
31183;BME280;17813;0.000;0.000;2023-06-22T12:35:58;99222.91;;;36.71;27.63
31183;BME280;17813;0.000;0.000;2023-06-22T12:38:27;99232.09;;;36.87;27.57
31183;BME280;17813;0.000;0.000;2023-06-22T12:40:56;99218.81;;;36.84;28.01
31183;BME280;17813;0.000;0.000;2023-06-22T12:43:24;99212.28;;;37.30;27.83
31183;BME280;17813;0.000;0.000;2023-06-22T12:45:52;99208.97;;;37.39;26.94
31183;BME280;17813;0.000;0.000;2023-06-22T12:48:21;99212.50;;;36.98;27.11
31183;BME280;17813;0.000;0.000;2023-06-22T12:50:49;99201.16;;;36.90;27.39
31183;BME280;17813;0.000;0.000;2023-06-22T12:53:21;99193.44;;;37.07;28.04
31183;BME280;17813;0.000;0.000;2023-06-22T12:55:57;99189.84;;;37.01;28.03
31183;BME280;17813;0.000;0.000;2023-06-22T12:58:25;99205.75;;;36.64;28.09
31183;BME280;17813;0.000;0.000;2023-06-22T13:00:52;99195.75;;;36.53;27.75
31183;BME280;17813;0.000;0.000;2023-06-22T13:03:23;99193.03;;;36.63;28.45
31183;BME280;17813;0.000;0.000;2023-06-22T13:05:55;99187.63;;;36.98;27.80
31183;BME280;17813;0.000;0.000;2023-06-22T13:08:22;99194.81;;;36.99;27.45
31183;BME280;17813;0.000;0.000;2023-06-22T13:10:57;99191.53;;;36.40;27.89
31183;BME280;17813;0.000;0.000;2023-06-22T13:13:27;99197.97;;;36.03;29.02
31183;BME280;17813;0.000;0.000;2023-06-22T13:15:55;99183.03;;;35.99;28.70
31183;BME280;17813;0.000;0.000;2023-06-22T13:18:27;99179.75;;;36.07;28.93
31183;BME280;17813;0.000;0.000;2023-06-22T13:20:54;99184.97;;;36.46;28.88
31183;BME280;17813;0.000;0.000;2023-06-22T13:23:22;99179.25;;;36.68;28.00
31183;BME280;17813;0.000;0.000;2023-06-22T13:25:51;99174.53;;;36.63;27.91
31183;BME280;17813;0.000;0.000;2023-06-22T13:28:19;99171.34;;;36.29;28.71